sensor_id;sensor_type;location;lat;lon;timestamp;P1;durP1;ratioP1;P2;durP2;ratioP2
53903;SDS011;39812;52.430;16.936;2023-07-16T00:02:03;4.05;;;2.53;;
53903;SDS011;39812;52.430;16.936;2023-07-16T00:04:30;5.22;;;2.80;;
53903;SDS011;39812;52.430;16.936;2023-07-16T00:07:01;4.28;;;2.80;;
53903;SDS011;39812;52.430;16.936;2023-07-16T00:09:27;5.72;;;3.05;;
53903;SDS011;39812;52.430;16.936;2023-07-16T00:11:53;5.25;;;2.85;;
53903;SDS011;39812;52.430;16.936;2023-07-16T00:14:19;6.00;;;3.42;;
53903;SDS011;39812;52.430;16.936;2023-07-16T00:16:44;4.57;;;2.85;;
53903;SDS011;39812;52.430;16.936;2023-07-16T00:19:10;4.32;;;2.92;;
53903;SDS011;39812;52.430;16.936;2023-07-16T00:21:36;6.18;;;3.25;;
53903;SDS011;39812;52.430;16.936;2023-07-16T00:24:02;4.47;;;3.10;;
53903;SDS011;39812;52.430;16.936;2023-07-16T00:26:28;4.82;;;2.80;;
53903;SDS011;39812;52.430;16.936;2023-07-16T00:28:54;6.78;;;3.13;;
53903;SDS011;39812;52.430;16.936;2023-07-16T00:31:19;5.95;;;3.28;;
53903;SDS011;39812;52.430;16.936;2023-07-16T00:33:45;3.85;;;2.85;;
53903;SDS011;39812;52.430;16.936;2023-07-16T00:36:11;6.03;;;3.08;;
53903;SDS011;39812;52.430;16.936;2023-07-16T00:38:36;5.50;;;3.00;;
53903;SDS011;39812;52.430;16.936;2023-07-16T00:41:02;7.90;;;3.00;;
53903;SDS011;39812;52.430;16.936;2023-07-16T00:43:27;4.45;;;3.03;;
53903;SDS011;39812;52.430;16.936;2023-07-16T00:45:53;4.97;;;3.20;;
53903;SDS011;39812;52.430;16.936;2023-07-16T00:48:19;4.15;;;3.15;;
53903;SDS011;39812;52.430;16.936;2023-07-16T00:50:45;5.20;;;3.10;;
53903;SDS011;39812;52.430;16.936;2023-07-16T00:53:11;6.88;;;3.70;;
53903;SDS011;39812;52.430;16.936;2023-07-16T00:55:37;6.68;;;3.33;;
53903;SDS011;39812;52.430;16.936;2023-07-16T00:58:05;7.90;;;3.53;;
53903;SDS011;39812;52.430;16.936;2023-07-16T01:00:32;6.45;;;3.03;;
53903;SDS011;39812;52.430;16.936;2023-07-16T01:03:00;4.72;;;3.28;;
53903;SDS011;39812;52.430;16.936;2023-07-16T01:05:52;6.25;;;3.30;;
53903;SDS011;39812;52.430;16.936;2023-07-16T01:08:30;5.75;;;3.65;;
53903;SDS011;39812;52.430;16.936;2023-07-16T01:11:01;5.28;;;3.58;;
53903;SDS011;39812;52.430;16.936;2023-07-16T01:13:27;6.45;;;3.20;;
53903;SDS011;39812;52.430;16.936;2023-07-16T01:15:53;7.13;;;3.65;;
53903;SDS011;39812;52.430;16.936;2023-07-16T01:18:19;6.80;;;3.40;;
53903;SDS011;39812;52.430;16.936;2023-07-16T01:20:45;12.00;;;3.60;;
53903;SDS011;39812;52.430;16.936;2023-07-16T01:23:14;5.07;;;3.67;;
53903;SDS011;39812;52.430;16.936;2023-07-16T01:28:43;5.68;;;3.38;;
53903;SDS011;39812;52.430;16.936;2023-07-16T01:31:33;5.55;;;3.35;;
53903;SDS011;39812;52.430;16.936;2023-07-16T01:33:59;7.97;;;3.65;;
53903;SDS011;39812;52.430;16.936;2023-07-16T01:36:30;7.13;;;3.67;;
53903;SDS011;39812;52.430;16.936;2023-07-16T01:38:57;5.50;;;3.60;;
53903;SDS011;39812;52.430;16.936;2023-07-16T01:41:22;5.82;;;3.88;;
53903;SDS011;39812;52.430;16.936;2023-07-16T01:43:49;4.78;;;3.33;;
53903;SDS011;39812;52.430;16.936;2023-07-16T01:46:15;8.25;;;3.95;;
53903;SDS011;39812;52.430;16.936;2023-07-16T01:48:41;10.65;;;3.47;;
53903;SDS011;39812;52.430;16.936;2023-07-16T01:51:07;6.63;;;3.42;;
53903;SDS011;39812;52.430;16.936;2023-07-16T01:53:32;9.32;;;3.63;;
53903;SDS011;39812;52.430;16.936;2023-07-16T01:55:58;6.05;;;3.72;;
53903;SDS011;39812;52.430;16.936;2023-07-16T01:58:27;9.73;;;3.75;;
53903;SDS011;39812;52.430;16.936;2023-07-16T02:00:52;4.72;;;3.47;;
53903;SDS011;39812;52.430;16.936;2023-07-16T02:03:18;8.30;;;3.95;;
53903;SDS011;39812;52.430;16.936;2023-07-16T02:05:44;4.82;;;3.80;;
53903;SDS011;39812;52.430;16.936;2023-07-16T02:08:09;6.07;;;3.20;;
53903;SDS011;39812;52.430;16.936;2023-07-16T02:10:35;6.45;;;4.18;;
53903;SDS011;39812;52.430;16.936;2023-07-16T02:13:01;5.13;;;3.80;;
53903;SDS011;39812;52.430;16.936;2023-07-16T02:15:26;5.00;;;3.63;;
53903;SDS011;39812;52.430;16.936;2023-07-16T02:17:52;6.20;;;3.65;;
53903;SDS011;39812;52.430;16.936;2023-07-16T02:20:18;6.97;;;3.65;;
53903;SDS011;39812;52.430;16.936;2023-07-16T02:22:43;6.47;;;3.88;;
53903;SDS011;39812;52.430;16.936;2023-07-16T02:25:09;5.82;;;3.53;;
53903;SDS011;39812;52.430;16.936;2023-07-16T02:27:34;7.03;;;4.43;;
53903;SDS011;39812;52.430;16.936;2023-07-16T02:30:00;5.05;;;3.70;;
53903;SDS011;39812;52.430;16.936;2023-07-16T02:32:25;5.68;;;3.88;;
53903;SDS011;39812;52.430;16.936;2023-07-16T02:34:51;7.22;;;4.10;;
53903;SDS011;39812;52.430;16.936;2023-07-16T02:37:17;7.60;;;3.92;;
53903;SDS011;39812;52.430;16.936;2023-07-16T02:39:44;5.53;;;3.80;;
53903;SDS011;39812;52.430;16.936;2023-07-16T02:42:12;8.43;;;4.45;;
53903;SDS011;39812;52.430;16.936;2023-07-16T02:44:38;6.85;;;3.60;;
53903;SDS011;39812;52.430;16.936;2023-07-16T02:47:08;4.80;;;3.75;;
53903;SDS011;39812;52.430;16.936;2023-07-16T02:49:34;6.13;;;4.25;;
53903;SDS011;39812;52.430;16.936;2023-07-16T02:51:59;11.20;;;3.80;;
53903;SDS011;39812;52.430;16.936;2023-07-16T02:54:25;4.57;;;3.63;;
53903;SDS011;39812;52.430;16.936;2023-07-16T02:56:50;5.88;;;3.63;;
53903;SDS011;39812;52.430;16.936;2023-07-16T02:59:16;5.80;;;3.83;;
53903;SDS011;39812;52.430;16.936;2023-07-16T03:01:41;5.60;;;4.00;;
53903;SDS011;39812;52.430;16.936;2023-07-16T03:04:07;5.60;;;3.45;;
53903;SDS011;39812;52.430;16.936;2023-07-16T03:06:33;5.75;;;3.85;;
53903;SDS011;39812;52.430;16.936;2023-07-16T03:08:59;4.88;;;3.67;;
53903;SDS011;39812;52.430;16.936;2023-07-16T03:11:25;6.78;;;4.10;;
53903;SDS011;39812;52.430;16.936;2023-07-16T03:13:50;6.70;;;3.75;;
53903;SDS011;39812;52.430;16.936;2023-07-16T03:16:16;6.05;;;3.67;;
53903;SDS011;39812;52.430;16.936;2023-07-16T03:18:41;4.93;;;3.45;;
53903;SDS011;39812;52.430;16.936;2023-07-16T03:21:07;5.55;;;4.07;;
53903;SDS011;39812;52.430;16.936;2023-07-16T03:23:33;4.60;;;3.60;;
53903;SDS011;39812;52.430;16.936;2023-07-16T03:25:58;8.20;;;3.92;;
53903;SDS011;39812;52.430;16.936;2023-07-16T03:28:24;9.68;;;3.92;;
53903;SDS011;39812;52.430;16.936;2023-07-16T03:30:50;4.82;;;3.72;;
53903;SDS011;39812;52.430;16.936;2023-07-16T03:33:16;6.10;;;4.05;;
53903;SDS011;39812;52.430;16.936;2023-07-16T03:35:43;5.10;;;3.65;;
53903;SDS011;39812;52.430;16.936;2023-07-16T03:38:10;9.10;;;4.32;;
53903;SDS011;39812;52.430;16.936;2023-07-16T03:40:36;5.07;;;3.95;;
53903;SDS011;39812;52.430;16.936;2023-07-16T03:43:01;5.78;;;4.03;;
53903;SDS011;39812;52.430;16.936;2023-07-16T03:45:27;6.03;;;4.07;;
53903;SDS011;39812;52.430;16.936;2023-07-16T03:47:53;5.45;;;3.78;;
53903;SDS011;39812;52.430;16.936;2023-07-16T03:50:19;4.93;;;4.03;;
53903;SDS011;39812;52.430;16.936;2023-07-16T03:52:44;4.70;;;3.83;;
53903;SDS011;39812;52.430;16.936;2023-07-16T03:55:10;5.88;;;3.53;;
53903;SDS011;39812;52.430;16.936;2023-07-16T03:57:36;8.02;;;4.38;;
53903;SDS011;39812;52.430;16.936;2023-07-16T04:00:03;7.32;;;4.00;;
53903;SDS011;39812;52.430;16.936;2023-07-16T04:02:31;5.00;;;3.95;;
53903;SDS011;39812;52.430;16.936;2023-07-16T04:04:56;4.53;;;3.67;;
53903;SDS011;39812;52.430;16.936;2023-07-16T04:07:22;4.72;;;3.78;;
53903;SDS011;39812;52.430;16.936;2023-07-16T04:09:48;5.53;;;3.75;;
53903;SDS011;39812;52.430;16.936;2023-07-16T04:12:14;4.60;;;3.60;;
53903;SDS011;39812;52.430;16.936;2023-07-16T04:14:39;4.45;;;3.83;;
53903;SDS011;39812;52.430;16.936;2023-07-16T04:17:05;8.05;;;3.88;;
53903;SDS011;39812;52.430;16.936;2023-07-16T04:19:31;4.68;;;3.92;;
53903;SDS011;39812;52.430;16.936;2023-07-16T04:21:56;6.07;;;3.60;;
53903;SDS011;39812;52.430;16.936;2023-07-16T04:24:22;5.63;;;3.50;;
53903;SDS011;39812;52.430;16.936;2023-07-16T04:26:48;5.10;;;3.47;;
53903;SDS011;39812;52.430;16.936;2023-07-16T04:29:14;6.82;;;4.13;;
53903;SDS011;39812;52.430;16.936;2023-07-16T04:31:40;4.65;;;4.05;;
53903;SDS011;39812;52.430;16.936;2023-07-16T04:34:06;5.70;;;3.95;;
53903;SDS011;39812;52.430;16.936;2023-07-16T04:36:32;4.65;;;3.40;;
53903;SDS011;39812;52.430;16.936;2023-07-16T04:38:57;7.88;;;4.05;;
53903;SDS011;39812;52.430;16.936;2023-07-16T04:41:23;4.45;;;3.78;;
53903;SDS011;39812;52.430;16.936;2023-07-16T04:43:48;4.63;;;3.30;;
53903;SDS011;39812;52.430;16.936;2023-07-16T04:46:14;3.78;;;3.28;;
53903;SDS011;39812;52.430;16.936;2023-07-16T04:48:41;5.43;;;3.55;;
53903;SDS011;39812;52.430;16.936;2023-07-16T04:51:07;6.28;;;3.70;;
53903;SDS011;39812;52.430;16.936;2023-07-16T04:53:32;4.63;;;2.80;;
53903;SDS011;39812;52.430;16.936;2023-07-16T04:55:58;4.55;;;3.00;;
53903;SDS011;39812;52.430;16.936;2023-07-16T04:58:23;4.15;;;2.90;;
53903;SDS011;39812;52.430;16.936;2023-07-16T05:00:49;3.90;;;3.50;;
53903;SDS011;39812;52.430;16.936;2023-07-16T05:03:15;5.43;;;2.67;;
53903;SDS011;39812;52.430;16.936;2023-07-16T05:05:40;4.70;;;2.83;;
53903;SDS011;39812;52.430;16.936;2023-07-16T05:08:06;4.05;;;3.20;;
53903;SDS011;39812;52.430;16.936;2023-07-16T05:10:32;5.88;;;2.70;;
53903;SDS011;39812;52.430;16.936;2023-07-16T05:12:58;5.30;;;3.03;;
53903;SDS011;39812;52.430;16.936;2023-07-16T05:15:23;3.75;;;2.63;;
53903;SDS011;39812;52.430;16.936;2023-07-16T05:17:49;4.53;;;2.65;;
53903;SDS011;39812;52.430;16.936;2023-07-16T05:20:15;4.07;;;2.80;;
53903;SDS011;39812;52.430;16.936;2023-07-16T05:22:40;4.07;;;2.45;;
53903;SDS011;39812;52.430;16.936;2023-07-16T05:25:06;5.28;;;2.58;;
53903;SDS011;39812;52.430;16.936;2023-07-16T05:27:32;5.10;;;2.38;;
53903;SDS011;39812;52.430;16.936;2023-07-16T05:29:57;5.25;;;1.98;;
53903;SDS011;39812;52.430;16.936;2023-07-16T05:32:23;4.43;;;2.60;;
53903;SDS011;39812;52.430;16.936;2023-07-16T05:34:49;4.45;;;2.25;;
53903;SDS011;39812;52.430;16.936;2023-07-16T05:37:14;3.13;;;2.22;;
53903;SDS011;39812;52.430;16.936;2023-07-16T05:39:40;4.97;;;2.38;;
53903;SDS011;39812;52.430;16.936;2023-07-16T05:42:05;6.22;;;2.22;;
53903;SDS011;39812;52.430;16.936;2023-07-16T05:44:31;3.65;;;2.33;;
53903;SDS011;39812;52.430;16.936;2023-07-16T05:46:57;2.28;;;1.90;;
53903;SDS011;39812;52.430;16.936;2023-07-16T05:49:23;2.67;;;2.00;;
53903;SDS011;39812;52.430;16.936;2023-07-16T05:51:50;6.80;;;2.33;;
53903;SDS011;39812;52.430;16.936;2023-07-16T05:54:16;2.97;;;1.80;;
53903;SDS011;39812;52.430;16.936;2023-07-16T05:56:42;2.80;;;1.90;;
53903;SDS011;39812;52.430;16.936;2023-07-16T05:59:07;4.78;;;1.80;;
53903;SDS011;39812;52.430;16.936;2023-07-16T06:01:33;4.43;;;1.80;;
53903;SDS011;39812;52.430;16.936;2023-07-16T06:03:59;4.38;;;1.80;;
53903;SDS011;39812;52.430;16.936;2023-07-16T06:06:26;3.15;;;1.95;;
53903;SDS011;39812;52.430;16.936;2023-07-16T06:08:53;4.60;;;1.80;;
53903;SDS011;39812;52.430;16.936;2023-07-16T06:11:19;2.85;;;1.90;;
53903;SDS011;39812;52.430;16.936;2023-07-16T06:13:45;5.00;;;2.13;;
53903;SDS011;39812;52.430;16.936;2023-07-16T06:16:11;3.40;;;1.98;;
53903;SDS011;39812;52.430;16.936;2023-07-16T06:18:36;2.08;;;1.58;;
53903;SDS011;39812;52.430;16.936;2023-07-16T06:21:02;4.20;;;1.80;;
53903;SDS011;39812;52.430;16.936;2023-07-16T06:23:28;2.47;;;1.90;;
53903;SDS011;39812;52.430;16.936;2023-07-16T06:25:54;3.38;;;2.03;;
53903;SDS011;39812;52.430;16.936;2023-07-16T06:28:20;5.10;;;2.10;;
53903;SDS011;39812;52.430;16.936;2023-07-16T06:30:46;2.92;;;1.75;;
53903;SDS011;39812;52.430;16.936;2023-07-16T06:33:11;2.83;;;1.95;;
53903;SDS011;39812;52.430;16.936;2023-07-16T06:35:37;3.10;;;1.70;;
53903;SDS011;39812;52.430;16.936;2023-07-16T06:38:03;5.38;;;1.90;;
53903;SDS011;39812;52.430;16.936;2023-07-16T06:40:29;2.70;;;1.67;;
53903;SDS011;39812;52.430;16.936;2023-07-16T06:42:55;3.55;;;1.73;;
53903;SDS011;39812;52.430;16.936;2023-07-16T06:45:21;2.55;;;1.60;;
53903;SDS011;39812;52.430;16.936;2023-07-16T06:47:47;2.50;;;1.45;;
53903;SDS011;39812;52.430;16.936;2023-07-16T06:50:13;2.15;;;1.60;;
53903;SDS011;39812;52.430;16.936;2023-07-16T06:52:39;2.10;;;1.70;;
53903;SDS011;39812;52.430;16.936;2023-07-16T06:55:05;2.13;;;1.58;;
53903;SDS011;39812;52.430;16.936;2023-07-16T06:57:31;3.55;;;1.60;;
53903;SDS011;39812;52.430;16.936;2023-07-16T06:59:57;2.67;;;1.70;;
53903;SDS011;39812;52.430;16.936;2023-07-16T07:02:23;2.63;;;1.40;;
53903;SDS011;39812;52.430;16.936;2023-07-16T07:04:48;2.58;;;1.60;;
53903;SDS011;39812;52.430;16.936;2023-07-16T07:07:15;1.73;;;1.30;;
53903;SDS011;39812;52.430;16.936;2023-07-16T07:09:40;3.53;;;1.33;;
53903;SDS011;39812;52.430;16.936;2023-07-16T07:12:06;2.38;;;1.30;;
53903;SDS011;39812;52.430;16.936;2023-07-16T07:14:32;2.47;;;1.30;;
53903;SDS011;39812;52.430;16.936;2023-07-16T07:16:58;1.58;;;1.30;;
53903;SDS011;39812;52.430;16.936;2023-07-16T07:19:24;3.13;;;1.63;;
53903;SDS011;39812;52.430;16.936;2023-07-16T07:21:49;2.03;;;1.40;;
53903;SDS011;39812;52.430;16.936;2023-07-16T07:24:15;3.15;;;1.35;;
53903;SDS011;39812;52.430;16.936;2023-07-16T07:26:41;3.25;;;1.30;;
53903;SDS011;39812;52.430;16.936;2023-07-16T07:29:06;1.90;;;1.33;;
53903;SDS011;39812;52.430;16.936;2023-07-16T07:31:32;4.18;;;1.40;;
53903;SDS011;39812;52.430;16.936;2023-07-16T07:33:58;3.03;;;1.60;;
53903;SDS011;39812;52.430;16.936;2023-07-16T07:36:24;2.55;;;1.58;;
53903;SDS011;39812;52.430;16.936;2023-07-16T07:38:50;2.17;;;1.50;;
53903;SDS011;39812;52.430;16.936;2023-07-16T07:41:15;2.38;;;1.60;;
53903;SDS011;39812;52.430;16.936;2023-07-16T07:43:41;2.55;;;1.40;;
53903;SDS011;39812;52.430;16.936;2023-07-16T07:46:06;2.65;;;1.67;;
53903;SDS011;39812;52.430;16.936;2023-07-16T07:48:32;1.38;;;1.20;;
53903;SDS011;39812;52.430;16.936;2023-07-16T07:50:58;2.75;;;1.38;;
53903;SDS011;39812;52.430;16.936;2023-07-16T07:53:23;3.55;;;1.40;;
53903;SDS011;39812;52.430;16.936;2023-07-16T07:55:49;2.05;;;1.30;;
53903;SDS011;39812;52.430;16.936;2023-07-16T07:58:14;3.70;;;1.52;;
53903;SDS011;39812;52.430;16.936;2023-07-16T08:00:40;2.17;;;1.50;;
53903;SDS011;39812;52.430;16.936;2023-07-16T08:03:06;2.25;;;1.33;;
53903;SDS011;39812;52.430;16.936;2023-07-16T08:05:31;3.03;;;1.77;;
53903;SDS011;39812;52.430;16.936;2023-07-16T08:07:58;3.15;;;1.63;;
53903;SDS011;39812;52.430;16.936;2023-07-16T08:10:24;2.28;;;1.50;;
53903;SDS011;39812;52.430;16.936;2023-07-16T08:12:50;2.78;;;1.45;;
53903;SDS011;39812;52.430;16.936;2023-07-16T08:15:15;1.55;;;1.27;;
53903;SDS011;39812;52.430;16.936;2023-07-16T08:17:43;1.77;;;1.33;;
53903;SDS011;39812;52.430;16.936;2023-07-16T08:20:09;3.75;;;1.30;;
53903;SDS011;39812;52.430;16.936;2023-07-16T08:22:36;2.00;;;1.48;;
53903;SDS011;39812;52.430;16.936;2023-07-16T08:25:02;1.77;;;1.30;;
53903;SDS011;39812;52.430;16.936;2023-07-16T08:27:28;1.80;;;1.30;;
53903;SDS011;39812;52.430;16.936;2023-07-16T08:29:55;3.80;;;1.50;;
53903;SDS011;39812;52.430;16.936;2023-07-16T08:32:20;2.60;;;1.70;;
53903;SDS011;39812;52.430;16.936;2023-07-16T08:34:46;3.17;;;1.55;;
53903;SDS011;39812;52.430;16.936;2023-07-16T08:37:12;2.25;;;1.75;;
53903;SDS011;39812;52.430;16.936;2023-07-16T08:39:38;2.90;;;1.60;;
53903;SDS011;39812;52.430;16.936;2023-07-16T08:42:04;3.25;;;1.70;;
53903;SDS011;39812;52.430;16.936;2023-07-16T08:44:30;3.33;;;1.55;;
53903;SDS011;39812;52.430;16.936;2023-07-16T08:46:55;2.92;;;1.60;;
53903;SDS011;39812;52.430;16.936;2023-07-16T08:49:22;3.03;;;1.77;;
53903;SDS011;39812;52.430;16.936;2023-07-16T08:51:48;3.55;;;2.05;;
53903;SDS011;39812;52.430;16.936;2023-07-16T08:54:14;2.15;;;1.40;;
53903;SDS011;39812;52.430;16.936;2023-07-16T08:56:43;2.60;;;1.52;;
53903;SDS011;39812;52.430;16.936;2023-07-16T08:59:08;2.25;;;1.92;;
53903;SDS011;39812;52.430;16.936;2023-07-16T09:01:36;2.63;;;1.83;;
53903;SDS011;39812;52.430;16.936;2023-07-16T09:04:02;2.33;;;1.52;;
53903;SDS011;39812;52.430;16.936;2023-07-16T09:06:28;2.75;;;1.67;;
53903;SDS011;39812;52.430;16.936;2023-07-16T09:08:55;2.50;;;1.67;;
53903;SDS011;39812;52.430;16.936;2023-07-16T09:11:21;2.65;;;1.95;;
53903;SDS011;39812;52.430;16.936;2023-07-16T09:13:47;3.65;;;1.80;;
53903;SDS011;39812;52.430;16.936;2023-07-16T09:16:13;1.80;;;1.60;;
53903;SDS011;39812;52.430;16.936;2023-07-16T09:18:41;3.30;;;2.03;;
53903;SDS011;39812;52.430;16.936;2023-07-16T09:21:07;3.10;;;1.85;;
53903;SDS011;39812;52.430;16.936;2023-07-16T09:23:33;2.30;;;1.90;;
53903;SDS011;39812;52.430;16.936;2023-07-16T09:25:59;3.30;;;2.25;;
53903;SDS011;39812;52.430;16.936;2023-07-16T09:28:25;5.85;;;2.20;;
53903;SDS011;39812;52.430;16.936;2023-07-16T09:30:51;3.95;;;2.38;;
53903;SDS011;39812;52.430;16.936;2023-07-16T09:33:18;2.40;;;1.77;;
53903;SDS011;39812;52.430;16.936;2023-07-16T09:35:47;3.22;;;2.53;;
53903;SDS011;39812;52.430;16.936;2023-07-16T09:38:14;4.10;;;1.83;;
53903;SDS011;39812;52.430;16.936;2023-07-16T09:40:40;2.08;;;1.50;;
53903;SDS011;39812;52.430;16.936;2023-07-16T09:43:09;2.83;;;1.60;;
53903;SDS011;39812;52.430;16.936;2023-07-16T09:45:35;2.85;;;1.73;;
53903;SDS011;39812;52.430;16.936;2023-07-16T09:48:04;4.95;;;1.83;;
53903;SDS011;39812;52.430;16.936;2023-07-16T09:50:34;4.57;;;1.85;;
53903;SDS011;39812;52.430;16.936;2023-07-16T09:53:00;2.20;;;1.70;;
53903;SDS011;39812;52.430;16.936;2023-07-16T09:55:28;1.80;;;1.50;;
53903;SDS011;39812;52.430;16.936;2023-07-16T09:57:58;3.65;;;1.58;;
53903;SDS011;39812;52.430;16.936;2023-07-16T10:00:26;2.97;;;1.80;;
53903;SDS011;39812;52.430;16.936;2023-07-16T10:02:53;1.75;;;1.48;;
53903;SDS011;39812;52.430;16.936;2023-07-16T10:05:23;3.03;;;1.60;;
53903;SDS011;39812;52.430;16.936;2023-07-16T10:07:51;3.40;;;1.63;;
53903;SDS011;39812;52.430;16.936;2023-07-16T10:10:18;2.42;;;1.63;;
53903;SDS011;39812;52.430;16.936;2023-07-16T10:12:58;1.75;;;1.20;;
53903;SDS011;39812;52.430;16.936;2023-07-16T10:15:27;2.58;;;1.25;;
53903;SDS011;39812;52.430;16.936;2023-07-16T10:17:54;1.63;;;1.25;;
53903;SDS011;39812;52.430;16.936;2023-07-16T10:20:30;3.00;;;1.70;;
53903;SDS011;39812;52.430;16.936;2023-07-16T10:22:58;3.13;;;1.40;;
53903;SDS011;39812;52.430;16.936;2023-07-16T10:25:34;2.92;;;1.52;;
53903;SDS011;39812;52.430;16.936;2023-07-16T10:28:00;2.97;;;1.70;;
53903;SDS011;39812;52.430;16.936;2023-07-16T10:30:25;3.05;;;1.70;;
53903;SDS011;39812;52.430;16.936;2023-07-16T10:32:51;2.33;;;1.45;;
53903;SDS011;39812;52.430;16.936;2023-07-16T10:35:20;3.92;;;1.35;;
53903;SDS011;39812;52.430;16.936;2023-07-16T10:37:46;2.00;;;1.45;;
53903;SDS011;39812;52.430;16.936;2023-07-16T10:40:12;4.07;;;1.50;;
53903;SDS011;39812;52.430;16.936;2023-07-16T10:42:40;2.47;;;1.40;;
53903;SDS011;39812;52.430;16.936;2023-07-16T10:45:08;2.58;;;1.70;;
53903;SDS011;39812;52.430;16.936;2023-07-16T10:47:38;2.85;;;1.50;;
53903;SDS011;39812;52.430;16.936;2023-07-16T10:50:06;3.53;;;1.60;;
53903;SDS011;39812;52.430;16.936;2023-07-16T10:52:33;2.70;;;1.48;;
53903;SDS011;39812;52.430;16.936;2023-07-16T10:54:59;3.60;;;1.52;;
53903;SDS011;39812;52.430;16.936;2023-07-16T10:57:25;2.00;;;1.40;;
53903;SDS011;39812;52.430;16.936;2023-07-16T10:59:52;2.33;;;1.48;;
53903;SDS011;39812;52.430;16.936;2023-07-16T11:02:18;1.92;;;1.77;;
53903;SDS011;39812;52.430;16.936;2023-07-16T11:04:46;2.05;;;1.30;;
53903;SDS011;39812;52.430;16.936;2023-07-16T11:07:13;2.00;;;1.40;;
53903;SDS011;39812;52.430;16.936;2023-07-16T11:12:13;2.42;;;1.30;;
53903;SDS011;39812;52.430;16.936;2023-07-16T11:14:57;2.00;;;1.27;;
53903;SDS011;39812;52.430;16.936;2023-07-16T11:17:23;1.75;;;1.13;;
53903;SDS011;39812;52.430;16.936;2023-07-16T11:19:50;1.83;;;1.10;;
53903;SDS011;39812;52.430;16.936;2023-07-16T11:22:17;2.67;;;1.27;;
53903;SDS011;39812;52.430;16.936;2023-07-16T11:24:49;1.83;;;1.20;;
53903;SDS011;39812;52.430;16.936;2023-07-16T11:27:19;2.08;;;1.15;;
53903;SDS011;39812;52.430;16.936;2023-07-16T11:29:46;1.95;;;1.15;;
53903;SDS011;39812;52.430;16.936;2023-07-16T11:34:58;1.98;;;1.10;;
53903;SDS011;39812;52.430;16.936;2023-07-16T11:37:25;1.92;;;1.33;;
53903;SDS011;39812;52.430;16.936;2023-07-16T11:39:56;2.10;;;1.50;;
53903;SDS011;39812;52.430;16.936;2023-07-16T11:42:32;2.20;;;1.27;;
53903;SDS011;39812;52.430;16.936;2023-07-16T11:45:02;1.42;;;1.00;;
53903;SDS011;39812;52.430;16.936;2023-07-16T11:47:29;2.80;;;1.70;;
53903;SDS011;39812;52.430;16.936;2023-07-16T11:49:55;1.40;;;1.17;;
53903;SDS011;39812;52.430;16.936;2023-07-16T11:52:23;3.05;;;1.55;;
53903;SDS011;39812;52.430;16.936;2023-07-16T11:54:51;1.95;;;1.20;;
53903;SDS011;39812;52.430;16.936;2023-07-16T11:57:17;3.10;;;1.50;;
53903;SDS011;39812;52.430;16.936;2023-07-16T11:59:43;2.47;;;1.67;;
53903;SDS011;39812;52.430;16.936;2023-07-16T12:02:09;2.75;;;1.42;;
53903;SDS011;39812;52.430;16.936;2023-07-16T12:04:34;2.70;;;1.45;;
53903;SDS011;39812;52.430;16.936;2023-07-16T12:07:00;2.70;;;1.45;;
53903;SDS011;39812;52.430;16.936;2023-07-16T12:09:25;2.00;;;1.30;;
53903;SDS011;39812;52.430;16.936;2023-07-16T12:11:51;2.33;;;1.45;;
53903;SDS011;39812;52.430;16.936;2023-07-16T12:14:17;1.80;;;1.40;;
53903;SDS011;39812;52.430;16.936;2023-07-16T12:16:42;2.38;;;1.48;;
53903;SDS011;39812;52.430;16.936;2023-07-16T12:19:08;2.85;;;1.40;;
53903;SDS011;39812;52.430;16.936;2023-07-16T12:21:35;2.25;;;1.42;;
53903;SDS011;39812;52.430;16.936;2023-07-16T12:24:00;1.85;;;1.42;;
53903;SDS011;39812;52.430;16.936;2023-07-16T12:26:26;2.15;;;1.50;;
53903;SDS011;39812;52.430;16.936;2023-07-16T12:28:53;2.90;;;1.60;;
53903;SDS011;39812;52.430;16.936;2023-07-16T12:31:18;1.98;;;1.38;;
53903;SDS011;39812;52.430;16.936;2023-07-16T12:33:45;1.90;;;1.60;;
53903;SDS011;39812;52.430;16.936;2023-07-16T12:36:12;2.10;;;1.50;;
53903;SDS011;39812;52.430;16.936;2023-07-16T12:38:38;1.80;;;1.42;;
53903;SDS011;39812;52.430;16.936;2023-07-16T12:41:04;2.78;;;1.17;;
53903;SDS011;39812;52.430;16.936;2023-07-16T12:43:30;2.40;;;1.58;;
53903;SDS011;39812;52.430;16.936;2023-07-16T12:45:58;3.22;;;1.30;;
53903;SDS011;39812;52.430;16.936;2023-07-16T12:48:30;1.85;;;1.30;;
53903;SDS011;39812;52.430;16.936;2023-07-16T12:50:56;4.63;;;1.42;;
53903;SDS011;39812;52.430;16.936;2023-07-16T12:53:22;2.90;;;1.40;;
53903;SDS011;39812;52.430;16.936;2023-07-16T12:55:48;2.95;;;1.52;;
53903;SDS011;39812;52.430;16.936;2023-07-16T12:58:14;1.88;;;1.42;;
53903;SDS011;39812;52.430;16.936;2023-07-16T13:00:39;2.28;;;1.13;;
53903;SDS011;39812;52.430;16.936;2023-07-16T13:03:05;1.80;;;1.40;;
53903;SDS011;39812;52.430;16.936;2023-07-16T13:05:33;2.47;;;1.45;;
53903;SDS011;39812;52.430;16.936;2023-07-16T13:07:58;1.63;;;1.20;;
53903;SDS011;39812;52.430;16.936;2023-07-16T13:10:24;2.15;;;1.15;;
53903;SDS011;39812;52.430;16.936;2023-07-16T13:12:49;1.70;;;1.20;;
53903;SDS011;39812;52.430;16.936;2023-07-16T13:15:15;2.65;;;1.30;;
53903;SDS011;39812;52.430;16.936;2023-07-16T13:17:41;2.08;;;1.40;;
53903;SDS011;39812;52.430;16.936;2023-07-16T13:20:06;2.42;;;1.23;;
53903;SDS011;39812;52.430;16.936;2023-07-16T13:22:33;1.92;;;1.40;;
53903;SDS011;39812;52.430;16.936;2023-07-16T13:24:58;2.05;;;1.48;;
53903;SDS011;39812;52.430;16.936;2023-07-16T13:27:24;2.30;;;1.40;;
53903;SDS011;39812;52.430;16.936;2023-07-16T13:29:50;2.92;;;1.30;;
53903;SDS011;39812;52.430;16.936;2023-07-16T13:32:16;1.75;;;1.20;;
53903;SDS011;39812;52.430;16.936;2023-07-16T13:34:41;1.65;;;1.02;;
53903;SDS011;39812;52.430;16.936;2023-07-16T13:37:07;2.60;;;1.45;;
53903;SDS011;39812;52.430;16.936;2023-07-16T13:39:33;2.08;;;1.02;;
53903;SDS011;39812;52.430;16.936;2023-07-16T13:41:58;2.45;;;1.10;;
53903;SDS011;39812;52.430;16.936;2023-07-16T13:44:24;2.55;;;1.38;;
53903;SDS011;39812;52.430;16.936;2023-07-16T13:46:49;2.00;;;1.33;;
53903;SDS011;39812;52.430;16.936;2023-07-16T13:49:15;4.63;;;1.38;;
53903;SDS011;39812;52.430;16.936;2023-07-16T13:51:41;2.08;;;1.27;;
53903;SDS011;39812;52.430;16.936;2023-07-16T13:54:06;1.92;;;1.27;;
53903;SDS011;39812;52.430;16.936;2023-07-16T13:56:32;3.20;;;1.45;;
53903;SDS011;39812;52.430;16.936;2023-07-16T13:58:57;2.45;;;1.65;;
53903;SDS011;39812;52.430;16.936;2023-07-16T14:01:24;3.58;;;1.45;;
53903;SDS011;39812;52.430;16.936;2023-07-16T14:03:49;2.00;;;1.15;;
53903;SDS011;39812;52.430;16.936;2023-07-16T14:06:15;1.63;;;1.20;;
53903;SDS011;39812;52.430;16.936;2023-07-16T14:08:40;2.63;;;1.42;;
53903;SDS011;39812;52.430;16.936;2023-07-16T14:11:06;3.30;;;1.30;;
53903;SDS011;39812;52.430;16.936;2023-07-16T14:13:32;2.45;;;1.40;;
53903;SDS011;39812;52.430;16.936;2023-07-16T14:15:57;2.80;;;1.40;;
53903;SDS011;39812;52.430;16.936;2023-07-16T14:18:23;1.92;;;1.35;;
53903;SDS011;39812;52.430;16.936;2023-07-16T14:20:49;1.98;;;1.40;;
53903;SDS011;39812;52.430;16.936;2023-07-16T14:23:14;3.60;;;1.60;;
53903;SDS011;39812;52.430;16.936;2023-07-16T14:25:40;1.65;;;1.30;;
53903;SDS011;39812;52.430;16.936;2023-07-16T14:28:06;1.90;;;1.20;;
53903;SDS011;39812;52.430;16.936;2023-07-16T14:30:31;3.15;;;1.70;;
53903;SDS011;39812;52.430;16.936;2023-07-16T14:32:57;2.13;;;1.50;;
53903;SDS011;39812;52.430;16.936;2023-07-16T14:35:24;2.92;;;1.50;;
53903;SDS011;39812;52.430;16.936;2023-07-16T14:37:50;2.40;;;1.40;;